createdAt,value
2017-08-26T00:00:24.271Z,85.50
2017-08-26T00:02:51.221Z,85.50
2017-08-26T00:05:18.113Z,85.50
2017-08-26T00:07:45.070Z,85.50
2017-08-26T00:10:12.025Z,85.10
2017-08-26T00:12:39.298Z,85.20
2017-08-26T00:15:06.209Z,85.20
2017-08-26T00:17:33.257Z,85.20
2017-08-26T00:20:00.206Z,85.30
2017-08-26T00:22:27.091Z,85.20
2017-08-26T00:24:54.102Z,85.30
2017-08-26T00:27:20.982Z,85.40
2017-08-26T00:29:47.891Z,85.60
2017-08-26T00:32:14.837Z,85.60
2017-08-26T00:34:41.713Z,85.40
2017-08-26T00:37:08.597Z,85.00
2017-08-26T00:39:35.582Z,85.20
2017-08-26T00:42:02.474Z,85.20
2017-08-26T00:44:29.377Z,85.10
2017-08-26T00:46:56.293Z,85.30
2017-08-26T00:49:23.253Z,85.40
2017-08-26T00:51:50.144Z,85.70
2017-08-26T00:54:17.094Z,85.30
2017-08-26T00:56:43.988Z,85.40
2017-08-26T00:59:10.889Z,85.20
2017-08-26T01:01:37.810Z,85.50
2017-08-26T01:04:05.293Z,85.60
2017-08-26T01:06:32.178Z,85.60
2017-08-26T01:08:59.114Z,85.70
2017-08-26T01:11:26.007Z,85.90
2017-08-26T01:13:52.885Z,85.50
2017-08-26T01:16:19.805Z,85.40
2017-08-26T01:18:46.694Z,85.50
2017-08-26T01:21:13.577Z,85.50
2017-08-26T01:23:40.585Z,85.50
2017-08-26T01:26:07.554Z,85.70
2017-08-26T01:28:34.441Z,85.90
2017-08-26T01:31:01.322Z,85.90
2017-08-26T01:33:28.300Z,85.80
2017-08-26T01:35:55.241Z,85.90
2017-08-26T01:38:22.244Z,86.00
2017-08-26T01:40:49.238Z,86.10
2017-08-26T01:43:16.159Z,86.20
2017-08-26T01:45:43.125Z,86.50
2017-08-26T01:48:10.055Z,86.30
2017-08-26T01:50:37.018Z,86.00
2017-08-26T01:53:03.905Z,85.90
2017-08-26T01:55:30.909Z,85.80
2017-08-26T01:57:57.792Z,85.90
2017-08-26T02:00:24.677Z,86.10
2017-08-26T02:02:51.645Z,85.90
2017-08-26T02:05:18.596Z,85.80
2017-08-26T02:07:45.474Z,85.70
2017-08-26T02:10:12.490Z,86.00
2017-08-26T02:12:39.434Z,85.80
2017-08-26T02:15:06.388Z,85.70
2017-08-26T02:17:33.433Z,85.30
2017-08-26T02:20:00.314Z,85.10
2017-08-26T02:22:27.225Z,85.20
2017-08-26T02:24:54.169Z,85.30
2017-08-26T02:27:21.114Z,85.20
2017-08-26T02:29:48.003Z,85.30
2017-08-26T02:32:15.009Z,85.50
2017-08-26T02:34:41.950Z,85.70
2017-08-26T02:37:08.838Z,85.60
2017-08-26T02:39:35.841Z,85.50
2017-08-26T02:42:02.805Z,85.50
2017-08-26T02:44:29.744Z,85.50
2017-08-26T02:46:56.685Z,85.30
2017-08-26T02:49:23.637Z,85.50
2017-08-26T02:51:50.586Z,85.30
2017-08-26T02:54:17.501Z,85.50
2017-08-26T02:56:44.471Z,86.00
2017-08-26T02:59:11.423Z,86.10
2017-08-26T03:01:38.366Z,86.00
2017-08-26T03:04:05.307Z,85.70
2017-08-26T03:06:32.253Z,85.30
2017-08-26T03:08:59.173Z,85.10
2017-08-26T03:11:26.153Z,85.10
2017-08-26T03:13:53.104Z,85.00
2017-08-26T03:16:20.044Z,85.20
2017-08-26T03:18:46.931Z,85.50
2017-08-26T03:21:13.809Z,85.90
2017-08-26T03:23:40.780Z,85.80
2017-08-26T03:26:07.661Z,85.70
2017-08-26T03:28:34.539Z,85.50
2017-08-26T03:31:01.455Z,85.50
2017-08-26T03:33:28.364Z,85.40
2017-08-26T03:35:55.310Z,85.60
2017-08-26T03:38:22.258Z,85.40
2017-08-26T03:40:49.210Z,84.90
2017-08-26T03:43:16.145Z,84.90
2017-08-26T03:45:43.091Z,85.20
2017-08-26T03:48:10.043Z,85.30
2017-08-26T03:50:36.926Z,85.30
2017-08-26T03:53:03.842Z,85.60
2017-08-26T03:55:30.782Z,85.40
2017-08-26T03:57:57.730Z,85.30
2017-08-26T04:00:24.646Z,84.10
2017-08-26T04:02:51.533Z,84.10
2017-08-26T04:05:18.458Z,84.20
2017-08-26T04:07:45.386Z,84.60
2017-08-26T04:10:12.269Z,83.80
2017-08-26T04:12:39.197Z,83.70
2017-08-26T04:15:06.135Z,83.90
2017-08-26T04:17:33.021Z,83.90
2017-08-26T04:19:59.937Z,83.90
2017-08-26T04:22:26.853Z,83.60
2017-08-26T04:24:53.826Z,83.80
2017-08-26T04:27:20.777Z,83.70
2017-08-26T04:29:47.690Z,84.10
2017-08-26T04:32:14.666Z,83.80
2017-08-26T04:34:41.617Z,83.80
2017-08-26T04:37:08.563Z,83.70
2017-08-26T04:39:35.513Z,83.70
2017-08-26T04:42:02.394Z,84.20
2017-08-26T04:44:29.346Z,84.80
2017-08-26T04:46:56.245Z,85.00
2017-08-26T04:49:23.201Z,85.00
2017-08-26T04:51:50.138Z,85.20
2017-08-26T04:54:17.082Z,85.00
2017-08-26T04:56:43.969Z,85.00
2017-08-26T04:59:10.881Z,85.10
2017-08-26T05:01:37.818Z,85.10
2017-08-26T05:04:04.761Z,84.90
2017-08-26T05:06:31.705Z,84.70
2017-08-26T05:08:58.586Z,84.60
2017-08-26T05:11:25.598Z,84.90
2017-08-26T05:13:52.554Z,85.10
2017-08-26T05:16:19.442Z,85.00
2017-08-26T05:18:46.329Z,84.90
2017-08-26T05:21:13.289Z,84.80
2017-08-26T05:23:40.176Z,85.00
2017-08-26T05:26:07.082Z,84.90
2017-08-26T05:28:34.026Z,84.90
2017-08-26T05:31:00.921Z,85.00
2017-08-26T05:33:27.812Z,85.00
2017-08-26T05:35:54.757Z,84.90
2017-08-26T05:38:21.647Z,84.90
2017-08-26T05:40:48.555Z,84.60
2017-08-26T05:43:15.473Z,84.40
2017-08-26T05:45:42.438Z,84.10
2017-08-26T05:48:09.439Z,84.60
2017-08-26T05:50:36.437Z,84.40
2017-08-26T05:53:03.385Z,84.30
2017-08-26T05:55:30.277Z,84.00
2017-08-26T05:57:57.286Z,83.80
2017-08-26T06:00:24.225Z,83.80
2017-08-26T06:02:51.117Z,83.70
2017-08-26T06:05:18.038Z,82.60
2017-08-26T06:07:44.958Z,82.60
2017-08-26T06:10:11.922Z,82.50
2017-08-26T06:12:38.857Z,83.30
2017-08-26T06:15:05.806Z,83.60
2017-08-26T06:17:32.691Z,83.60
2017-08-26T06:19:59.689Z,83.70
2017-08-26T06:22:26.646Z,83.50
2017-08-26T06:24:53.525Z,83.20
2017-08-26T06:27:20.475Z,83.10
2017-08-26T06:29:47.382Z,82.80
2017-08-26T06:32:14.265Z,82.60
2017-08-26T06:34:41.269Z,81.90
2017-08-26T06:37:08.221Z,82.00
2017-08-26T06:39:35.161Z,81.70
2017-08-26T06:42:02.118Z,81.80
2017-08-26T06:44:29.062Z,81.80
2017-08-26T06:46:55.950Z,81.60
2017-08-26T06:49:22.955Z,81.70
2017-08-26T06:51:49.897Z,81.90
2017-08-26T06:54:16.837Z,81.70
2017-08-26T06:56:43.792Z,81.50
2017-08-26T06:59:10.673Z,81.30
2017-08-26T07:01:37.578Z,81.30
2017-08-26T07:04:04.514Z,81.10
2017-08-26T07:06:31.413Z,81.40
2017-08-26T07:08:58.301Z,81.40
2017-08-26T07:11:25.222Z,81.20
2017-08-26T07:13:52.213Z,81.20
2017-08-26T07:16:19.163Z,80.90
2017-08-26T07:18:46.068Z,80.80
2017-08-26T07:21:13.573Z,79.90
2017-08-26T07:23:40.490Z,79.70
2017-08-26T07:26:07.431Z,79.30
2017-08-26T07:28:34.313Z,79.10
2017-08-26T07:31:01.210Z,79.20
2017-08-26T07:33:28.122Z,79.00
2017-08-26T07:35:55.033Z,78.90
2017-08-26T07:38:21.985Z,78.80
2017-08-26T07:40:48.929Z,78.90
2017-08-26T07:43:15.821Z,79.00
2017-08-26T07:45:42.719Z,78.90
2017-08-26T07:48:09.666Z,78.50
2017-08-26T07:50:36.567Z,78.70
2017-08-26T07:53:03.718Z,78.50
2017-08-26T07:55:30.637Z,78.40
2017-08-26T07:57:57.558Z,78.50
2017-08-26T08:00:24.577Z,78.20
2017-08-26T08:02:51.529Z,77.80
2017-08-26T08:05:18.494Z,78.50
2017-08-26T08:07:45.450Z,77.90
2017-08-26T08:10:12.381Z,78.30
2017-08-26T08:12:39.344Z,78.10
2017-08-26T08:15:06.377Z,77.50
2017-08-26T08:17:33.334Z,77.50
2017-08-26T08:20:00.232Z,77.50
2017-08-26T08:22:27.223Z,77.40
2017-08-26T08:24:54.165Z,77.00
2017-08-26T08:27:22.033Z,77.50
2017-08-26T08:29:48.977Z,76.80
2017-08-26T08:32:16.805Z,76.60
2017-08-26T08:34:43.728Z,76.60
2017-08-26T08:37:11.101Z,76.50
2017-08-26T08:39:38.018Z,76.10
2017-08-26T08:42:04.923Z,76.40
2017-08-26T08:44:31.893Z,76.70
2017-08-26T08:46:58.839Z,76.60
2017-08-26T08:49:25.781Z,76.60
2017-08-26T08:51:52.738Z,76.80
2017-08-26T08:54:19.673Z,76.60
2017-08-26T08:56:46.617Z,76.20
2017-08-26T08:59:13.565Z,76.10
2017-08-26T09:01:40.451Z,76.00
2017-08-26T09:04:07.458Z,75.60
2017-08-26T09:06:34.414Z,75.90
2017-08-26T09:09:01.353Z,75.30
2017-08-26T09:11:28.300Z,75.40
2017-08-26T09:13:55.193Z,75.00
2017-08-26T09:16:22.107Z,74.40
2017-08-26T09:18:49.042Z,74.30
2017-08-26T09:21:15.948Z,73.50
2017-08-26T09:23:42.880Z,74.00
2017-08-26T09:26:09.818Z,74.40
2017-08-26T09:28:36.866Z,73.80
2017-08-26T09:31:03.792Z,73.60
2017-08-26T09:33:30.681Z,73.20
2017-08-26T09:35:57.661Z,73.30
2017-08-26T09:38:24.610Z,72.20
2017-08-26T09:40:51.565Z,74.00
2017-08-26T09:43:18.486Z,74.70
2017-08-26T09:45:45.450Z,75.20
2017-08-26T09:48:12.401Z,73.70
2017-08-26T09:50:39.344Z,74.70
2017-08-26T09:53:06.222Z,75.30
2017-08-26T09:55:33.137Z,75.40
2017-08-26T09:58:00.077Z,74.00
2017-08-26T10:00:27.067Z,73.50
2017-08-26T10:02:54.069Z,71.80
2017-08-26T10:05:21.017Z,72.50
2017-08-26T10:07:47.971Z,73.20
2017-08-26T10:10:14.878Z,72.20
2017-08-26T10:12:41.761Z,72.70
2017-08-26T10:15:08.713Z,72.60
2017-08-26T10:17:35.605Z,72.90
2017-08-26T10:20:02.508Z,75.20
2017-08-26T10:22:29.486Z,76.10
2017-08-26T10:24:56.386Z,76.40
2017-08-26T10:27:23.330Z,76.10
2017-08-26T10:29:50.236Z,76.30
2017-08-26T10:32:17.132Z,76.60
2017-08-26T10:34:44.048Z,77.40
2017-08-26T10:37:11.880Z,78.00
2017-08-26T10:39:38.809Z,78.00
2017-08-26T10:42:05.741Z,77.10
2017-08-26T10:44:32.674Z,76.80
2017-08-26T10:47:05.638Z,76.10
2017-08-26T10:49:32.601Z,74.80
2017-08-26T10:51:59.564Z,75.20
2017-08-26T10:54:26.449Z,74.30
2017-08-26T10:56:53.353Z,73.80
2017-08-26T10:59:20.297Z,72.70
2017-08-26T11:01:47.237Z,72.90
2017-08-26T11:04:14.181Z,72.80
2017-08-26T11:06:41.124Z,73.20
2017-08-26T11:09:08.081Z,72.90
2017-08-26T11:11:35.026Z,72.60
2017-08-26T11:14:01.975Z,72.80
2017-08-26T11:16:28.906Z,72.70
2017-08-26T11:18:55.866Z,71.40
2017-08-26T11:21:22.759Z,71.90
2017-08-26T11:23:49.753Z,73.20
2017-08-26T11:26:16.702Z,74.50
2017-08-26T11:28:43.649Z,75.20
2017-08-26T11:31:10.589Z,75.10
2017-08-26T11:33:37.541Z,74.30
2017-08-26T11:36:04.485Z,73.80
2017-08-26T11:38:31.433Z,73.10
2017-08-26T11:40:58.382Z,73.90
2017-08-26T11:43:25.331Z,74.40
2017-08-26T11:45:52.273Z,74.30
2017-08-26T11:48:19.222Z,74.70
2017-08-26T11:50:46.210Z,73.50
2017-08-26T11:53:13.213Z,73.30
2017-08-26T11:55:40.162Z,72.80
2017-08-26T11:58:07.151Z,73.60
2017-08-26T12:00:34.070Z,74.10
2017-08-26T12:03:00.990Z,73.50
2017-08-26T12:05:27.950Z,74.40
2017-08-26T12:07:55.257Z,72.70
2017-08-26T12:10:22.141Z,71.90
2017-08-26T12:12:49.098Z,71.50
2017-08-26T12:15:16.021Z,70.10
2017-08-26T12:17:42.993Z,70.60
2017-08-26T12:20:09.919Z,70.10
2017-08-26T12:22:36.889Z,70.00
2017-08-26T12:25:03.796Z,70.80
2017-08-26T12:27:30.818Z,71.60
2017-08-26T12:29:57.877Z,71.50
2017-08-26T12:32:24.941Z,70.10
2017-08-26T12:34:51.891Z,70.00
2017-08-26T12:37:18.913Z,71.50
2017-08-26T12:39:45.859Z,71.40
2017-08-26T12:42:12.805Z,70.80
2017-08-26T12:44:39.723Z,71.30
2017-08-26T12:47:06.745Z,71.90
2017-08-26T12:49:33.750Z,71.30
2017-08-26T12:52:00.693Z,71.10
2017-08-26T12:54:27.641Z,70.90
2017-08-26T12:56:54.565Z,70.40
2017-08-26T12:59:21.533Z,69.30
2017-08-26T13:01:48.413Z,69.30
2017-08-26T13:04:15.454Z,68.30
2017-08-26T13:06:42.362Z,69.00
2017-08-26T13:09:09.318Z,68.30
2017-08-26T13:11:36.261Z,68.00
2017-08-26T13:14:03.185Z,69.60
2017-08-26T13:16:30.153Z,69.80
2017-08-26T13:18:57.037Z,68.80
2017-08-26T13:21:23.951Z,69.70
2017-08-26T13:23:50.897Z,69.20
2017-08-26T13:26:17.783Z,68.90
2017-08-26T13:28:44.694Z,68.80
2017-08-26T13:31:11.659Z,68.90
2017-08-26T13:33:38.625Z,68.90
2017-08-26T13:36:05.525Z,68.80
2017-08-26T13:38:32.470Z,68.40
2017-08-26T13:40:59.365Z,68.60
2017-08-26T13:43:26.262Z,69.00
2017-08-26T13:45:53.290Z,69.40
2017-08-26T13:48:20.281Z,69.60
2017-08-26T13:50:47.282Z,69.90
2017-08-26T13:53:14.254Z,70.30
2017-08-26T13:55:41.205Z,70.10
2017-08-26T13:58:08.141Z,70.80
2017-08-26T14:00:35.025Z,71.00
2017-08-26T14:03:02.084Z,71.10
2017-08-26T14:05:29.089Z,71.40
2017-08-26T14:07:55.993Z,70.70
2017-08-26T14:10:22.977Z,70.20
2017-08-26T14:12:49.926Z,70.40
2017-08-26T14:15:16.889Z,70.60
2017-08-26T14:17:43.813Z,70.30
2017-08-26T14:20:10.761Z,70.90
2017-08-26T14:22:37.709Z,70.10
2017-08-26T14:25:04.617Z,70.90
2017-08-26T14:27:31.601Z,71.10
2017-08-26T14:29:58.598Z,71.30
2017-08-26T14:32:25.473Z,71.50
2017-08-26T14:34:52.473Z,70.70
2017-08-26T14:37:19.432Z,70.70
2017-08-26T14:39:46.434Z,69.60
2017-08-26T14:42:13.401Z,69.60
2017-08-26T14:44:40.279Z,68.90
2017-08-26T14:47:07.282Z,68.60
2017-08-26T14:49:34.230Z,68.00
2017-08-26T14:52:01.165Z,67.90
2017-08-26T14:54:28.138Z,67.20
2017-08-26T14:56:55.110Z,67.20
2017-08-26T14:59:22.013Z,66.90
2017-08-26T15:01:48.955Z,66.30
2017-08-26T15:04:15.869Z,66.00
2017-08-26T15:06:42.847Z,65.70
2017-08-26T15:09:09.793Z,65.60
2017-08-26T15:11:36.721Z,65.70
2017-08-26T15:14:03.690Z,65.40
2017-08-26T15:16:30.566Z,64.90
2017-08-26T15:18:57.578Z,65.00
2017-08-26T15:21:24.471Z,64.20
2017-08-26T15:23:51.375Z,64.00
2017-08-26T15:26:18.292Z,63.60
2017-08-26T15:28:45.265Z,62.50
2017-08-26T15:31:12.418Z,62.90
2017-08-26T15:33:39.471Z,63.20
2017-08-26T15:36:06.409Z,62.60
2017-08-26T15:38:33.357Z,63.50
2017-08-26T15:41:00.269Z,63.50
2017-08-26T15:43:27.247Z,62.40
2017-08-26T15:45:54.194Z,62.00
2017-08-26T15:48:21.146Z,61.90
2017-08-26T15:50:48.086Z,62.50
2017-08-26T15:53:15.033Z,62.70
2017-08-26T15:55:41.959Z,62.90
2017-08-26T15:58:08.934Z,62.80
2017-08-26T16:00:35.874Z,63.10
2017-08-26T16:03:02.826Z,64.10
2017-08-26T16:05:29.815Z,63.70
2017-08-26T16:07:56.693Z,63.80
2017-08-26T16:10:23.708Z,64.00
2017-08-26T16:12:50.587Z,63.90
2017-08-26T16:15:17.465Z,63.30
2017-08-26T16:17:44.405Z,63.20
2017-08-26T16:20:11.327Z,63.10
2017-08-26T16:22:38.205Z,62.30
2017-08-26T16:25:05.136Z,62.50
2017-08-26T16:27:32.018Z,62.90
2017-08-26T16:29:59.029Z,62.70
2017-08-26T16:32:26.122Z,62.10
2017-08-26T16:34:53.080Z,62.40
2017-08-26T16:37:19.961Z,62.40
2017-08-26T16:39:46.896Z,63.30
2017-08-26T16:42:13.861Z,62.50
2017-08-26T16:44:40.812Z,63.90
2017-08-26T16:47:07.908Z,64.50
2017-08-26T16:49:34.851Z,64.90
2017-08-26T16:52:01.767Z,65.50
2017-08-26T16:54:28.678Z,66.00
2017-08-26T16:56:55.572Z,65.80
2017-08-26T16:59:22.489Z,64.70
2017-08-26T17:01:49.409Z,64.10
2017-08-26T17:04:16.422Z,64.20
2017-08-26T17:06:43.389Z,62.40
2017-08-26T17:09:10.374Z,62.80
2017-08-26T17:11:37.266Z,62.30
2017-08-26T17:14:04.146Z,62.60
2017-08-26T17:16:31.082Z,63.10
2017-08-26T17:18:57.988Z,63.60
2017-08-26T17:21:24.914Z,64.10
2017-08-26T17:23:51.870Z,64.40
2017-08-26T17:26:18.823Z,64.00
2017-08-26T17:28:45.710Z,64.60
2017-08-26T17:31:12.643Z,64.80
2017-08-26T17:33:39.538Z,64.60
2017-08-26T17:36:06.497Z,64.50
2017-08-26T17:38:33.434Z,64.80
2017-08-26T17:41:00.377Z,65.30
2017-08-26T17:43:27.329Z,65.30
2017-08-26T17:45:54.308Z,65.20
2017-08-26T17:48:21.229Z,65.50
2017-08-26T17:50:48.152Z,65.80
2017-08-26T17:53:15.082Z,66.10
2017-08-26T17:55:41.969Z,66.20
2017-08-26T17:58:08.879Z,66.20
2017-08-26T18:00:35.837Z,66.30
2017-08-26T18:03:02.791Z,66.40
2017-08-26T18:05:29.737Z,66.50
2017-08-26T18:07:56.677Z,67.30
2017-08-26T18:10:23.571Z,68.00
2017-08-26T18:12:50.475Z,67.60
2017-08-26T18:15:17.401Z,67.50
2017-08-26T18:17:44.301Z,67.90
2017-08-26T18:20:11.190Z,68.20
2017-08-26T18:22:38.162Z,68.70
2017-08-26T18:25:05.105Z,68.70
2017-08-26T18:27:31.990Z,68.70
2017-08-26T18:29:58.994Z,69.20
2017-08-26T18:32:25.956Z,69.70
2017-08-26T18:34:52.885Z,69.80
2017-08-26T18:37:19.840Z,70.10
2017-08-26T18:39:46.777Z,70.20
2017-08-26T18:42:13.798Z,69.50
2017-08-26T18:44:40.777Z,70.10
2017-08-26T18:47:07.668Z,70.70
2017-08-26T18:49:34.582Z,70.90
2017-08-26T18:52:01.557Z,71.00
2017-08-26T18:54:28.566Z,70.90
2017-08-26T18:56:55.440Z,71.50
2017-08-26T18:59:22.409Z,71.50
2017-08-26T19:01:49.317Z,71.00
2017-08-26T19:04:16.247Z,71.10
2017-08-26T19:06:43.197Z,71.60
2017-08-26T19:09:10.097Z,72.00
2017-08-26T19:11:37.077Z,72.40
2017-08-26T19:14:04.012Z,72.70
2017-08-26T19:16:30.973Z,73.10
2017-08-26T19:18:57.926Z,73.10
2017-08-26T19:21:24.989Z,73.30
2017-08-26T19:23:51.913Z,72.40
2017-08-26T19:26:18.870Z,72.30
2017-08-26T19:28:45.834Z,72.40
2017-08-26T19:31:13.576Z,71.20
2017-08-26T19:33:40.461Z,71.20
2017-08-26T19:36:07.778Z,70.80
2017-08-26T19:38:34.656Z,70.80
2017-08-26T19:41:01.565Z,70.90
2017-08-26T19:43:28.524Z,69.60
2017-08-26T19:45:55.480Z,70.10
2017-08-26T19:48:22.410Z,70.20
2017-08-26T19:50:49.365Z,69.90
2017-08-26T19:53:16.250Z,69.50
2017-08-26T19:55:43.145Z,69.70
2017-08-26T19:58:10.097Z,69.40
2017-08-26T20:00:37.045Z,69.70
2017-08-26T20:03:03.934Z,68.80
2017-08-26T20:05:30.866Z,68.80
2017-08-26T20:07:57.789Z,68.70
2017-08-26T20:10:24.737Z,70.40
2017-08-26T20:12:51.669Z,71.20
2017-08-26T20:15:18.590Z,71.50
2017-08-26T20:17:45.563Z,72.30
2017-08-26T20:20:12.510Z,72.60
2017-08-26T20:22:39.397Z,72.70
2017-08-26T20:25:06.301Z,72.70
2017-08-26T20:27:33.280Z,72.70
2017-08-26T20:30:00.199Z,71.40
2017-08-26T20:32:27.141Z,71.80
2017-08-26T20:34:54.093Z,71.90
2017-08-26T20:37:21.075Z,72.50
2017-08-26T20:39:47.958Z,72.40
2017-08-26T20:42:14.930Z,72.50
2017-08-26T20:44:41.823Z,72.00
2017-08-26T20:47:08.720Z,72.80
2017-08-26T20:49:35.774Z,72.20
2017-08-26T20:52:02.663Z,72.30
2017-08-26T20:54:29.541Z,72.40
2017-08-26T20:56:56.497Z,72.30
2017-08-26T20:59:23.378Z,72.40
2017-08-26T21:01:50.261Z,72.50
2017-08-26T21:04:17.229Z,72.70
2017-08-26T21:06:44.187Z,73.00
2017-08-26T21:09:11.073Z,73.20
2017-08-26T21:11:37.981Z,73.60
2017-08-26T21:14:04.917Z,73.90
2017-08-26T21:16:31.814Z,73.80
2017-08-26T21:18:58.814Z,73.90
2017-08-26T21:21:25.802Z,73.90
2017-08-26T21:23:52.685Z,73.90
2017-08-26T21:26:19.619Z,74.20
2017-08-26T21:28:46.600Z,74.40
2017-08-26T21:31:13.491Z,74.50
2017-08-26T21:33:40.485Z,74.70
2017-08-26T21:36:07.374Z,75.10
2017-08-26T21:38:34.283Z,75.30
2017-08-26T21:41:01.241Z,75.50
2017-08-26T21:43:28.179Z,75.40
2017-08-26T21:45:55.061Z,75.40
2017-08-26T21:48:21.971Z,75.40
2017-08-26T21:50:48.913Z,75.60
2017-08-26T21:53:15.861Z,75.50
2017-08-26T21:55:42.806Z,75.50
2017-08-26T21:58:09.750Z,75.80
2017-08-26T22:00:36.693Z,75.80
2017-08-26T22:03:03.587Z,76.10
2017-08-26T22:05:30.601Z,76.30
2017-08-26T22:07:57.481Z,76.60
2017-08-26T22:10:24.386Z,76.90
2017-08-26T22:12:51.322Z,77.20
2017-08-26T22:15:18.205Z,77.40
2017-08-26T22:17:45.117Z,77.60
2017-08-26T22:20:12.049Z,77.40
2017-08-26T22:22:39.011Z,77.50
2017-08-26T22:25:05.953Z,77.90
2017-08-26T22:27:32.897Z,78.20
2017-08-26T22:29:59.778Z,78.50
2017-08-26T22:32:26.678Z,78.70
2017-08-26T22:34:53.643Z,78.90
2017-08-26T22:37:20.589Z,78.80
2017-08-26T22:39:47.533Z,79.10
2017-08-26T22:42:14.481Z,79.10
2017-08-26T22:44:41.428Z,79.10
2017-08-26T22:47:08.373Z,79.00
2017-08-26T22:49:35.324Z,78.90
2017-08-26T22:52:02.213Z,78.80
2017-08-26T22:54:29.112Z,78.90
2017-08-26T22:56:56.050Z,79.00
2017-08-26T22:59:23.046Z,79.00
2017-08-26T23:01:49.950Z,78.90
2017-08-26T23:04:16.873Z,78.70
2017-08-26T23:06:43.843Z,78.70
2017-08-26T23:09:10.787Z,79.00
2017-08-26T23:11:37.738Z,78.90
2017-08-26T23:14:04.681Z,78.90
2017-08-26T23:16:31.633Z,79.20
2017-08-26T23:18:58.549Z,79.50
2017-08-26T23:21:25.450Z,79.80
2017-08-26T23:23:52.366Z,80.10
2017-08-26T23:26:19.310Z,80.20
2017-08-26T23:28:46.197Z,80.30
2017-08-26T23:31:13.101Z,80.30
2017-08-26T23:33:40.025Z,80.60
2017-08-26T23:36:06.998Z,80.70
2017-08-26T23:38:33.938Z,81.20
2017-08-26T23:41:00.901Z,81.20
2017-08-26T23:43:27.785Z,81.00
2017-08-26T23:45:54.677Z,80.80
2017-08-26T23:48:21.610Z,80.70
2017-08-26T23:50:48.665Z,80.70
2017-08-26T23:53:15.552Z,80.70
2017-08-26T23:55:42.505Z,80.40
2017-08-26T23:58:09.413Z,80.40
